Time;durP1;ratioP1;P1;durP2;ratioP2;P2;SDS_P1;SDS_P2;PMS_P1;PMS_P2;Temp;Humidity;BMP_temperature;BMP_pressure;BME280_temperature;BME280_humidity;BME280_pressure;Samples;Min_cycle;Max_cycle;Signal;HPM_P1;HPM_P2
2023/01/09 00:01:33;;;;;;;5.95;2.53;;;6.70;91.50;;;;;;4828906;29;20044;-73
2023/01/09 00:03:59;;;;;;;6.70;3.05;;;6.70;91.60;;;;;;4831149;29;20088;-74
2023/01/09 00:06:25;;;;;;;6.80;2.83;;;6.70;91.60;;;;;;4830233;29;20049;-74
2023/01/09 00:08:51;;;;;;;6.63;2.90;;;6.80;91.60;;;;;;4830290;29;20061;-74
2023/01/09 00:11:16;;;;;;;5.47;2.67;;;6.80;91.50;;;;;;4830332;29;20141;-75
2023/01/09 00:13:42;;;;;;;4.10;2.53;;;6.90;91.60;;;;;;4832568;29;20060;-74
2023/01/09 00:16:08;;;;;;;5.75;2.90;;;6.90;91.60;;;;;;4830361;29;20069;-75
2023/01/09 00:18:35;;;;;;;3.75;2.33;;;6.90;91.60;;;;;;4832231;29;20046;-75
2023/01/09 00:21:05;;;;;;;2.83;2.03;;;7.00;91.70;;;;;;4831701;29;20045;-74
2023/01/09 00:23:31;;;;;;;4.63;2.30;;;7.00;91.70;;;;;;4814505;29;20046;-75
2023/01/09 00:26:20;;;;;;;6.43;2.30;;;7.10;91.80;;;;;;4831751;29;20041;-75
2023/01/09 00:28:48;;;;;;;5.15;2.40;;;7.20;91.80;;;;;;4829672;29;20090;-74
2023/01/09 00:31:14;;;;;;;5.82;2.28;;;7.20;91.70;;;;;;4829446;29;20094;-74
2023/01/09 00:33:53;;;;;;;3.85;1.90;;;7.30;91.80;;;;;;4832699;29;20456;-76
2023/01/09 00:36:19;;;;;;;6.85;2.65;;;7.40;91.90;;;;;;4830015;29;20053;-74
2023/01/09 00:38:44;;;;;;;5.70;2.65;;;7.50;92.00;;;;;;4828963;29;20090;-73
2023/01/09 00:41:15;;;;;;;8.02;2.47;;;7.60;92.20;;;;;;4825506;29;20827;-74
2023/01/09 00:43:45;;;;;;;8.02;2.67;;;7.60;92.40;;;;;;4825834;29;20046;-73
2023/01/09 00:46:12;;;;;;;6.80;2.42;;;7.60;92.80;;;;;;4831157;29;20042;-77
2023/01/09 00:48:41;;;;;;;3.70;2.38;;;7.50;92.90;;;;;;4830588;29;20495;-73
2023/01/09 00:51:07;;;;;;;;;;;7.50;93.00;;;;;;4827410;29;20531;-77
2023/01/09 00:53:35;;;;;;;3.58;1.50;;;7.40;92.10;;;;;;4828284;29;19924;-74
2023/01/09 00:56:05;;;;;;;6.65;1.58;;;7.20;92.40;;;;;;4828205;29;20081;-74
2023/01/09 00:58:32;;;;;;;2.97;1.48;;;7.10;92.50;;;;;;4829691;29;20076;-73
2023/01/09 01:00:57;;;;;;;5.50;1.73;;;7.00;92.50;;;;;;4829360;29;20054;-73
2023/01/09 01:03:23;;;;;;;3.50;1.65;;;7.00;92.50;;;;;;4829717;29;20064;-73
2023/01/09 01:08:33;;;;;;;4.22;2.40;;;7.00;93.00;;;;;;4822559;29;20062;-75
2023/01/09 01:11:04;;;;;;;5.05;2.47;;;6.90;93.20;;;;;;4827772;29;20117;-74
2023/01/09 01:13:29;;;;;;;7.50;2.95;;;7.00;93.60;;;;;;4830291;29;20049;-74
2023/01/09 01:15:55;;;;;;;6.45;2.83;;;6.90;93.90;;;;;;4826155;29;20062;-74
2023/01/09 01:18:21;;;;;;;11.68;3.33;;;6.90;94.00;;;;;;4827589;29;20114;-75
2023/01/09 01:20:46;;;;;;;6.57;3.28;;;6.90;94.20;;;;;;4829370;29;20129;-74
2023/01/09 01:23:12;;;;;;;5.90;3.30;;;6.90;94.60;;;;;;4829999;29;20129;-74
2023/01/09 01:25:39;;;;;;;7.07;3.20;;;6.90;94.70;;;;;;4829001;29;20072;-74
2023/01/09 01:28:06;;;;;;;8.35;2.90;;;6.90;94.70;;;;;;4829341;29;20050;-78
2023/01/09 01:30:32;;;;;;;5.50;2.42;;;6.80;94.90;;;;;;4830315;29;20098;-77
2023/01/09 01:32:58;;;;;;;7.05;2.10;;;6.80;95.00;;;;;;4829326;29;20444;-77
2023/01/09 01:35:25;;;;;;;5.18;2.38;;;6.80;94.80;;;;;;4829556;29;20050;-78
2023/01/09 01:37:51;;;;;;;6.97;2.30;;;6.80;94.70;;;;;;4829539;29;20145;-76
2023/01/09 01:40:17;;;;;;;4.20;2.10;;;6.70;94.50;;;;;;4816090;29;20376;-74
2023/01/09 01:42:50;;;;;;;5.03;1.98;;;6.70;94.60;;;;;;4828923;29;20083;-73
2023/01/09 01:45:19;;;;;;;2.17;1.52;;;6.70;94.50;;;;;;4835848;29;20077;-77
2023/01/09 01:47:50;;;;;;;4.00;1.88;;;6.70;94.50;;;;;;4826856;29;20070;-77
2023/01/09 01:50:25;;;;;;;3.70;1.48;;;6.70;94.40;;;;;;4826670;29;20038;-76
2023/01/09 01:53:04;;;;;;;3.88;1.88;;;6.70;94.20;;;;;;4829155;29;20225;-76
2023/01/09 01:55:31;;;;;;;2.75;1.27;;;6.70;94.30;;;;;;4829593;29;20060;-77
2023/01/09 01:58:00;;;;;;;3.33;1.30;;;6.60;94.10;;;;;;4828434;29;20065;-77
2023/01/09 02:00:31;;;;;;;2.38;1.13;;;6.60;94.20;;;;;;4831206;29;20093;-76
2023/01/09 02:02:58;;;;;;;4.38;1.38;;;6.60;94.20;;;;;;4825829;29;20054;-77
2023/01/09 02:05:24;;;;;;;3.83;1.10;;;6.60;94.20;;;;;;4813070;29;20076;-78
2023/01/09 02:07:49;;;;;;;3.33;1.35;;;6.60;94.20;;;;;;4831006;29;20124;-78
2023/01/09 02:10:15;;;;;;;2.88;1.15;;;6.60;94.10;;;;;;4829820;29;20636;-77
2023/01/09 02:12:41;;;;;;;3.50;1.20;;;6.60;94.10;;;;;;4826965;29;20045;-76
2023/01/09 02:15:13;;;;;;;2.78;1.30;;;6.60;94.20;;;;;;4827037;29;20730;-78
2023/01/09 02:18:01;;;;;;;3.67;1.30;;;6.60;94.30;;;;;;4829525;29;20069;-78
2023/01/09 02:20:51;;;;;;;2.72;1.30;;;6.60;94.20;;;;;;4831505;29;20053;-77
2023/01/09 02:24:09;;;;;;;5.30;1.60;;;6.60;94.20;;;;;;4825547;29;20053;-77
2023/01/09 02:26:58;;;;;;;3.95;1.60;;;6.60;94.30;;;;;;4801401;29;20058;-78
2023/01/09 02:29:30;;;;;;;4.03;1.80;;;6.50;94.20;;;;;;4803936;29;20092;-77
2023/01/09 02:32:11;;;;;;;8.02;2.00;;;6.50;94.40;;;;;;4824943;29;20062;-77
2023/01/09 02:34:50;;;;;;;5.85;1.90;;;6.50;94.40;;;;;;4831399;29;20061;-78
2023/01/09 02:37:53;;;;;;;3.60;2.20;;;6.50;94.50;;;;;;4829511;29;20158;-77
2023/01/09 02:40:28;;;;;;;4.00;2.13;;;6.40;94.60;;;;;;4840892;29;20054;-77
2023/01/09 02:42:57;;;;;;;9.88;2.42;;;6.40;94.60;;;;;;4829538;29;20058;-79
2023/01/09 02:45:23;;;;;;;;;;;6.30;94.70;;;;;;4833344;29;20053;-78
2023/01/09 02:47:49;;;;;;;8.52;2.53;;;6.30;94.90;;;;;;4831272;29;20501;-74
2023/01/09 02:50:21;;;;;;;6.93;2.60;;;6.30;94.90;;;;;;4830742;29;20494;-74
2023/01/09 02:53:17;;;;;;;8.95;2.58;;;6.30;95.00;;;;;;4832637;29;20814;-76
2023/01/09 02:55:49;;;;;;;5.65;2.60;;;6.20;94.90;;;;;;4827240;29;20091;-78
2023/01/09 02:58:36;;;;;;;5.43;2.78;;;6.20;95.00;;;;;;4829409;29;20812;-74
2023/01/09 03:01:22;;;;;;;5.65;2.55;;;6.10;95.10;;;;;;4829096;29;20137;-74
2023/01/09 03:04:15;;;;;;;7.75;3.08;;;6.10;95.20;;;;;;4830290;29;20053;-74
2023/01/09 03:06:51;;;;;;;7.70;3.13;;;6.10;95.20;;;;;;4829298;29;20423;-74
2023/01/09 03:09:21;;;;;;;11.38;3.30;;;6.10;95.20;;;;;;4832376;29;20054;-74
2023/01/09 03:11:52;;;;;;;11.45;3.58;;;6.10;95.30;;;;;;4832465;29;20792;-74
2023/01/09 03:14:22;;;;;;;7.30;3.22;;;6.10;95.40;;;;;;4817893;29;20046;-74
2023/01/09 03:16:54;;;;;;;5.97;3.00;;;6.00;95.30;;;;;;4830745;29;20172;-74
2023/01/09 03:19:25;;;;;;;7.30;3.47;;;6.00;95.40;;;;;;4830510;29;20053;-75
2023/01/09 03:21:52;;;;;;;9.45;3.13;;;6.00;95.30;;;;;;4829833;29;20430;-75
2023/01/09 03:24:17;;;;;;;7.43;3.47;;;6.00;95.40;;;;;;4828567;29;20042;-74
2023/01/09 03:26:43;;;;;;;8.10;3.42;;;6.00;95.40;;;;;;4830395;29;20411;-75
2023/01/09 03:29:09;;;;;;;6.88;3.60;;;6.00;95.40;;;;;;4824755;29;20046;-74
2023/01/09 03:31:35;;;;;;;11.57;4.03;;;5.90;95.40;;;;;;4828129;29;20583;-74
2023/01/09 03:34:00;;;;;;;10.13;3.80;;;5.90;95.50;;;;;;4828688;29;20046;-74
2023/01/09 03:36:26;;;;;;;7.40;4.05;;;5.90;95.40;;;;;;4830038;29;20511;-74
2023/01/09 03:38:51;;;;;;;9.77;3.97;;;5.80;95.50;;;;;;4826589;29;20234;-76
2023/01/09 03:41:18;;;;;;;10.93;3.83;;;5.80;95.50;;;;;;4823518;29;20038;-77
2023/01/09 03:43:44;;;;;;;12.80;4.45;;;5.80;95.40;;;;;;4825656;29;20038;-75
2023/01/09 03:46:10;;;;;;;11.18;4.35;;;5.70;95.40;;;;;;4829604;29;20137;-75
2023/01/09 03:48:35;;;;;;;13.55;4.28;;;5.70;95.50;;;;;;4833162;29;20125;-73
2023/01/09 03:51:01;;;;;;;11.27;4.47;;;5.60;95.60;;;;;;4830434;29;20617;-74
2023/01/09 03:53:28;;;;;;;13.10;4.47;;;5.60;95.70;;;;;;4830827;29;20435;-75
2023/01/09 03:55:55;;;;;;;11.98;4.43;;;5.60;95.70;;;;;;4832753;29;20049;-75
2023/01/09 03:58:22;;;;;;;10.83;4.63;;;5.60;95.80;;;;;;4832289;29;20498;-75
2023/01/09 04:00:48;;;;;;;9.57;4.63;;;5.60;95.70;;;;;;4826591;29;20460;-74
2023/01/09 04:03:16;;;;;;;8.48;4.53;;;5.50;95.60;;;;;;4829152;29;20041;-74
2023/01/09 04:05:43;;;;;;;12.40;4.30;;;5.50;95.80;;;;;;4828128;29;20050;-74
2023/01/09 04:08:08;;;;;;;16.27;4.80;;;5.50;95.70;;;;;;4830367;29;20042;-74
2023/01/09 04:10:35;;;;;;;13.25;4.35;;;5.50;95.80;;;;;;4827153;29;20048;-73
2023/01/09 04:13:01;;;;;;;12.18;4.70;;;5.50;95.80;;;;;;4824969;29;20062;-76
2023/01/09 04:15:27;;;;;;;12.13;4.60;;;5.50;95.70;;;;;;4814352;29;20061;-75
2023/01/09 04:17:52;;;;;;;8.50;4.40;;;5.40;95.70;;;;;;4830886;29;20608;-74
2023/01/09 04:20:18;;;;;;;10.35;4.40;;;5.40;95.80;;;;;;4827059;29;20837;-76
2023/01/09 04:22:43;;;;;;;10.43;4.28;;;5.40;95.80;;;;;;4830023;29;20048;-75
2023/01/09 04:25:09;;;;;;;10.65;4.57;;;5.40;95.70;;;;;;4830274;29;20034;-76
2023/01/09 04:27:35;;;;;;;14.43;4.72;;;5.30;95.70;;;;;;4828526;29;20101;-76
2023/01/09 04:30:00;;;;;;;7.85;4.38;;;5.30;95.70;;;;;;4827487;29;20129;-77
2023/01/09 04:32:26;;;;;;;11.15;4.75;;;5.30;95.80;;;;;;4828554;29;20050;-77
2023/01/09 04:34:53;;;;;;;13.18;5.22;;;5.20;95.80;;;;;;4828092;29;20065;-77
2023/01/09 04:37:19;;;;;;;15.27;4.78;;;5.20;95.80;;;;;;4832182;29;20500;-77
2023/01/09 04:39:45;;;;;;;14.95;5.70;;;5.20;96.00;;;;;;4811961;29;20061;-77
2023/01/09 04:42:11;;;;;;;15.00;5.18;;;5.20;96.00;;;;;;4824029;29;20044;-76
2023/01/09 04:44:37;;;;;;;11.75;5.78;;;5.20;96.10;;;;;;4832481;29;20129;-75
2023/01/09 04:47:03;;;;;;;11.80;5.82;;;5.20;96.00;;;;;;4828579;29;20071;-77
2023/01/09 04:49:28;;;;;;;13.07;5.95;;;5.20;96.30;;;;;;4833019;29;20781;-74
2023/01/09 04:51:54;;;;;;;15.80;6.88;;;5.20;96.00;;;;;;4825871;29;20686;-77
2023/01/09 04:54:20;;;;;;;15.77;6.63;;;5.20;96.10;;;;;;4827990;29;20053;-77
2023/01/09 04:56:46;;;;;;;14.35;6.85;;;5.20;96.20;;;;;;4822274;29;20038;-78
2023/01/09 04:59:12;;;;;;;16.92;7.38;;;5.20;96.30;;;;;;4827777;29;20048;-76
2023/01/09 05:01:38;;;;;;;16.02;7.45;;;5.20;96.30;;;;;;4829994;29;20054;-75
2023/01/09 05:04:04;;;;;;;17.30;7.65;;;5.20;96.40;;;;;;4828864;29;20055;-76
2023/01/09 05:06:30;;;;;;;17.42;7.38;;;5.30;96.20;;;;;;4827524;29;20125;-75
2023/01/09 05:08:56;;;;;;;16.83;7.95;;;5.20;96.20;;;;;;4821160;29;20042;-76
2023/01/09 05:11:24;;;;;;;14.75;7.75;;;5.20;96.30;;;;;;4828617;29;20056;-74
2023/01/09 05:13:50;;;;;;;17.00;8.70;;;5.20;96.30;;;;;;4829648;29;20136;-75
2023/01/09 05:16:15;;;;;;;20.20;9.68;;;5.30;96.30;;;;;;4832049;29;20582;-76
2023/01/09 05:18:41;;;;;;;18.65;9.25;;;5.30;96.30;;;;;;4826220;29;20049;-74
2023/01/09 05:21:06;;;;;;;15.60;9.07;;;5.30;96.20;;;;;;4829583;29;20038;-75
2023/01/09 05:23:32;;;;;;;23.88;10.10;;;5.40;96.40;;;;;;4828549;29;20070;-78
2023/01/09 05:25:58;;;;;;;21.85;11.45;;;5.40;96.30;;;;;;4830314;29;20046;-75
2023/01/09 05:28:23;;;;;;;19.45;11.00;;;5.50;96.30;;;;;;4829805;29;20058;-78
2023/01/09 05:30:49;;;;;;;21.70;12.13;;;5.40;96.10;;;;;;4826786;29;20499;-76
2023/01/09 05:33:14;;;;;;;25.17;12.75;;;5.50;96.20;;;;;;4813815;29;20132;-77
2023/01/09 05:35:40;;;;;;;22.63;13.80;;;5.50;96.10;;;;;;4827883;29;20187;-78
2023/01/09 05:38:06;;;;;;;26.70;15.93;;;5.50;96.10;;;;;;4829909;29;20084;-77
2023/01/09 05:40:31;;;;;;;22.48;14.90;;;5.50;96.10;;;;;;4830470;29;20589;-75
2023/01/09 05:42:57;;;;;;;28.73;14.98;;;5.50;96.10;;;;;;4829699;29;20578;-74
2023/01/09 05:45:22;;;;;;;28.40;16.45;;;5.50;96.10;;;;;;4813951;29;20046;-74
2023/01/09 05:47:48;;;;;;;27.17;15.75;;;5.50;96.10;;;;;;4829044;29;20046;-74
2023/01/09 05:50:14;;;;;;;26.75;16.17;;;5.60;96.10;;;;;;4828760;29;20038;-74
2023/01/09 05:52:39;;;;;;;33.33;18.05;;;5.60;96.00;;;;;;4832270;29;20085;-74
2023/01/09 05:55:06;;;;;;;27.45;16.75;;;5.60;96.00;;;;;;4833248;29;20042;-75
2023/01/09 05:57:31;;;;;;;28.33;17.35;;;5.60;96.00;;;;;;4833642;29;20409;-74
2023/01/09 05:59:57;;;;;;;30.25;17.48;;;5.60;96.00;;;;;;4833028;29;20046;-74
2023/01/09 06:02:23;;;;;;;24.67;16.83;;;5.60;95.90;;;;;;4832780;29;20038;-75
2023/01/09 06:04:48;;;;;;;29.75;17.30;;;5.60;95.90;;;;;;4831224;29;20137;-75
2023/01/09 06:07:14;;;;;;;28.73;18.25;;;5.60;95.90;;;;;;4831539;29;20679;-74
2023/01/09 06:09:40;;;;;;;29.35;17.40;;;5.60;95.90;;;;;;4831115;29;20102;-75
2023/01/09 06:12:06;;;;;;;30.88;17.30;;;5.60;95.90;;;;;;4833494;29;20034;-77
2023/01/09 06:14:31;;;;;;;32.13;18.42;;;5.60;95.80;;;;;;4831196;29;20050;-77
2023/01/09 06:16:57;;;;;;;30.27;18.75;;;5.60;95.90;;;;;;4831765;29;20394;-74
2023/01/09 06:19:23;;;;;;;25.98;18.10;;;5.60;95.90;;;;;;4823689;29;20054;-73
2023/01/09 06:21:48;;;;;;;27.40;17.67;;;5.60;95.90;;;;;;4828278;29;20230;-73
2023/01/09 06:24:14;;;;;;;29.77;17.58;;;5.60;95.90;;;;;;4829556;29;20054;-75
2023/01/09 06:26:39;;;;;;;29.60;18.10;;;5.60;95.90;;;;;;4828900;29;20057;-74
2023/01/09 06:29:06;;;;;;;28.20;17.67;;;5.60;95.80;;;;;;4832948;29;20045;-73
2023/01/09 06:31:32;;;;;;;29.63;17.77;;;5.60;95.70;;;;;;4825823;29;20054;-73
2023/01/09 06:33:58;;;;;;;28.70;17.48;;;5.70;95.70;;;;;;4828215;29;20207;-74
2023/01/09 06:36:23;;;;;;;29.92;17.05;;;5.70;95.60;;;;;;4828916;29;20042;-74
2023/01/09 06:38:49;;;;;;;29.23;17.85;;;5.70;95.60;;;;;;4829545;29;20556;-76
2023/01/09 06:41:15;;;;;;;26.85;16.20;;;5.60;95.60;;;;;;4829788;29;20054;-74
2023/01/09 06:43:40;;;;;;;26.13;15.93;;;5.70;95.60;;;;;;4828117;29;20046;-73
2023/01/09 06:46:06;;;;;;;24.13;15.30;;;5.60;95.60;;;;;;4830975;29;20547;-74
2023/01/09 06:48:32;;;;;;;25.33;15.20;;;5.60;95.60;;;;;;4829560;29;20142;-73
2023/01/09 06:50:58;;;;;;;24.10;15.10;;;5.60;95.50;;;;;;4834771;29;20060;-75
2023/01/09 06:53:23;;;;;;;23.17;14.43;;;5.60;95.50;;;;;;4832411;29;20041;-74
2023/01/09 06:55:49;;;;;;;27.83;15.60;;;5.60;95.40;;;;;;4830537;29;20058;-73
2023/01/09 06:58:15;;;;;;;22.15;14.23;;;5.60;95.30;;;;;;4828602;29;20948;-74
2023/01/09 07:00:41;;;;;;;26.02;14.00;;;5.60;95.30;;;;;;4825618;29;20099;-75
2023/01/09 07:03:06;;;;;;;27.08;13.98;;;5.60;95.20;;;;;;4828740;29;20042;-73
2023/01/09 07:05:38;;;;;;;25.40;14.18;;;5.60;95.30;;;;;;4825928;29;20050;-79
2023/01/09 07:08:04;;;;;;;22.98;13.57;;;5.60;95.30;;;;;;4829875;29;20061;-73
2023/01/09 07:10:29;;;;;;;28.40;13.80;;;5.50;95.20;;;;;;4825748;29;20050;-73
2023/01/09 07:12:55;;;;;;;19.40;12.27;;;5.50;95.20;;;;;;4829024;29;20046;-77
2023/01/09 07:15:21;;;;;;;20.70;12.60;;;5.40;95.30;;;;;;4827604;29;20042;-74
2023/01/09 07:17:49;;;;;;;20.90;12.40;;;5.50;95.30;;;;;;4820452;29;20145;-72
2023/01/09 07:20:16;;;;;;;24.17;12.80;;;5.40;95.30;;;;;;4820777;29;20110;-74
2023/01/09 07:22:42;;;;;;;19.42;11.45;;;5.40;95.30;;;;;;4828459;29;20050;-74
2023/01/09 07:25:08;;;;;;;20.85;10.98;;;5.30;95.30;;;;;;4831415;29;20645;-77
2023/01/09 07:27:33;;;;;;;18.15;11.27;;;5.40;95.40;;;;;;4833100;29;20042;-73
2023/01/09 07:29:59;;;;;;;23.25;10.23;;;5.40;95.40;;;;;;4846725;29;20050;-73
2023/01/09 07:32:24;;;;;;;19.17;10.05;;;5.30;95.30;;;;;;4808639;29;20453;-73
2023/01/09 07:34:50;;;;;;;17.25;10.27;;;5.30;95.30;;;;;;4830884;29;20506;-72
2023/01/09 07:37:16;;;;;;;17.75;9.50;;;5.30;95.30;;;;;;4825550;29;20045;-73
2023/01/09 07:39:42;;;;;;;18.15;9.80;;;5.20;95.30;;;;;;4831114;29;20046;-73
2023/01/09 07:42:08;;;;;;;14.73;9.13;;;5.30;95.40;;;;;;4824235;29;20049;-74
2023/01/09 07:44:34;;;;;;;16.77;9.50;;;5.40;95.50;;;;;;4824027;29;20114;-74
2023/01/09 07:46:59;;;;;;;14.15;8.50;;;5.20;95.40;;;;;;4828100;29;20374;-75
2023/01/09 07:49:25;;;;;;;19.38;9.30;;;5.30;95.50;;;;;;4830602;29;20045;-74
2023/01/09 07:51:50;;;;;;;21.90;8.80;;;5.20;95.40;;;;;;4827089;29;20046;-73
2023/01/09 07:54:16;;;;;;;15.68;8.85;;;5.20;95.40;;;;;;4829899;29;20045;-74
2023/01/09 07:56:41;;;;;;;17.10;8.85;;;5.20;95.50;;;;;;4822845;29;20149;-73
2023/01/09 07:59:07;;;;;;;19.55;9.30;;;5.20;95.50;;;;;;4847890;29;20634;-73
2023/01/09 08:01:33;;;;;;;17.17;9.07;;;5.20;95.50;;;;;;4818172;29;20046;-75
2023/01/09 08:03:59;;;;;;;14.90;8.75;;;5.10;95.60;;;;;;4829803;29;20061;-75
2023/01/09 08:06:24;;;;;;;19.90;8.35;;;5.20;95.70;;;;;;4832355;29;20104;-75
2023/01/09 08:08:50;;;;;;;14.55;7.95;;;5.20;95.70;;;;;;4825936;29;20065;-74
2023/01/09 08:11:15;;;;;;;17.67;7.75;;;5.20;95.70;;;;;;4814362;29;20643;-76
2023/01/09 08:13:41;;;;;;;12.98;7.72;;;5.30;95.70;;;;;;4828237;29;20117;-74
2023/01/09 08:16:07;;;;;;;17.83;7.28;;;5.30;95.60;;;;;;4830045;29;20042;-77
2023/01/09 08:18:33;;;;;;;12.80;7.40;;;5.40;95.60;;;;;;4828151;29;20264;-76
2023/01/09 08:20:58;;;;;;;12.45;7.15;;;5.40;95.60;;;;;;4829511;29;20046;-76
2023/01/09 08:23:24;;;;;;;12.15;7.15;;;5.40;95.50;;;;;;4826738;29;20042;-78
2023/01/09 08:25:49;;;;;;;13.00;7.32;;;5.40;95.50;;;;;;4827793;29;20056;-73
2023/01/09 08:28:16;;;;;;;15.88;6.65;;;5.50;95.50;;;;;;4835277;29;20135;-73
2023/01/09 08:30:42;;;;;;;12.93;6.40;;;5.50;95.40;;;;;;4828313;29;20149;-73
2023/01/09 08:33:07;;;;;;;14.32;6.15;;;5.50;95.40;;;;;;4827771;29;20042;-73
2023/01/09 08:35:33;;;;;;;16.73;6.13;;;5.50;95.40;;;;;;4834138;29;20507;-73
2023/01/09 08:37:59;;;;;;;12.15;6.10;;;5.50;95.30;;;;;;4834286;29;20050;-74
2023/01/09 08:40:24;;;;;;;16.23;6.57;;;5.50;95.20;;;;;;4835547;29;20518;-74
2023/01/09 08:48:18;;;;;;;10.93;5.13;;;5.70;95.20;;;;;;4824568;29;20586;-73
2023/01/09 08:50:44;;;;;;;12.27;5.63;;;5.70;95.00;;;;;;4822945;29;20054;-73
2023/01/09 08:53:10;;;;;;;9.82;5.05;;;5.80;95.00;;;;;;4833731;29;20053;-73
2023/01/09 08:55:35;;;;;;;11.82;4.80;;;5.80;95.00;;;;;;4817438;29;20118;-74
2023/01/09 08:58:01;;;;;;;12.40;5.03;;;5.80;95.00;;;;;;4831949;29;20075;-73
2023/01/09 09:00:27;;;;;;;14.07;4.97;;;5.90;95.10;;;;;;4834430;29;20137;-73
2023/01/09 09:02:57;;;;;;;13.55;5.60;;;5.90;94.90;;;;;;4824929;29;20114;-73
2023/01/09 09:05:24;;;;;;;8.95;4.60;;;5.90;94.90;;;;;;4834012;29;20136;-74
2023/01/09 09:07:52;;;;;;;9.85;4.78;;;6.00;94.90;;;;;;4834499;29;20046;-73
2023/01/09 09:10:19;;;;;;;13.93;4.85;;;5.90;94.80;;;;;;4833007;29;20808;-72
2023/01/09 09:12:47;;;;;;;9.82;4.97;;;6.00;94.80;;;;;;4826077;29;20136;-73
2023/01/09 09:15:22;;;;;;;9.85;4.80;;;6.00;94.80;;;;;;4831223;29;20113;-73
2023/01/09 09:17:49;;;;;;;11.98;5.00;;;6.00;94.80;;;;;;4835357;29;20042;-74
2023/01/09 09:20:15;;;;;;;8.38;4.75;;;6.00;94.80;;;;;;4816692;29;20514;-73
2023/01/09 09:22:40;;;;;;;15.52;4.70;;;6.10;94.90;;;;;;4826561;29;20050;-74
2023/01/09 09:25:06;;;;;;;8.35;4.60;;;6.00;94.80;;;;;;4828772;29;20061;-75
2023/01/09 09:27:35;;;;;;;10.48;5.10;;;6.10;94.90;;;;;;4829880;29;20055;-74
2023/01/09 09:30:01;;;;;;;12.40;5.32;;;6.10;94.90;;;;;;4822555;29;20514;-73
2023/01/09 09:32:26;;;;;;;13.10;5.30;;;6.10;94.80;;;;;;4833830;29;20046;-77
2023/01/09 09:34:52;;;;;;;14.43;5.18;;;6.10;94.80;;;;;;4832178;29;20077;-76
2023/01/09 09:37:17;;;;;;;10.38;4.63;;;6.10;94.80;;;;;;4824047;29;20169;-77
2023/01/09 09:39:43;;;;;;;12.18;5.00;;;6.20;94.90;;;;;;4835429;29;20100;-73
2023/01/09 09:45:26;;;;;;;11.70;4.50;;;6.20;94.90;;;;;;4829586;29;20133;-74
2023/01/09 09:48:17;;;;;;;11.65;4.30;;;6.30;95.10;;;;;;4818022;29;20133;-77
2023/01/09 09:50:54;;;;;;;14.25;4.35;;;6.30;95.10;;;;;;4830581;29;20121;-73
2023/01/09 09:53:35;;;;;;;8.23;4.47;;;6.40;95.10;;;;;;4824785;29;20058;-73
2023/01/09 09:56:01;;;;;;;8.75;4.00;;;6.40;94.90;;;;;;4829826;29;20058;-74
2023/01/09 09:58:36;;;;;;;11.15;4.47;;;6.50;94.80;;;;;;4832736;29;20038;-73
2023/01/09 10:01:03;;;;;;;9.23;4.00;;;6.60;94.70;;;;;;4830920;29;20058;-74
2023/01/09 10:03:40;;;;;;;11.73;4.30;;;6.70;94.60;;;;;;4821733;29;20497;-73
2023/01/09 10:06:16;;;;;;;13.95;4.30;;;6.80;94.50;;;;;;4823113;29;20059;-74
2023/01/09 10:09:01;;;;;;;12.93;3.72;;;6.90;94.40;;;;;;4834226;29;20049;-74
2023/01/09 10:11:34;;;;;;;13.07;4.30;;;6.90;94.20;;;;;;4823806;29;20419;-73
2023/01/09 10:14:05;;;;;;;12.90;4.22;;;6.90;94.10;;;;;;4834120;29;20102;-74
2023/01/09 10:16:39;;;;;;;8.05;3.70;;;7.00;94.30;;;;;;4832914;29;20125;-74
2023/01/09 10:19:15;;;;;;;10.90;4.05;;;7.00;94.00;;;;;;4824374;29;20515;-73
2023/01/09 10:21:49;;;;;;;8.65;3.55;;;7.00;93.80;;;;;;4831790;29;20085;-74
2023/01/09 10:24:24;;;;;;;14.10;3.97;;;7.10;93.90;;;;;;4834045;29;20050;-73
2023/01/09 10:26:51;;;;;;;6.80;3.40;;;7.10;93.70;;;;;;4832722;29;20506;-74
2023/01/09 10:29:35;;;;;;;10.57;3.65;;;7.20;93.70;;;;;;4833596;29;20097;-73
2023/01/09 10:32:10;;;;;;;9.30;3.33;;;7.20;93.40;;;;;;4829523;29;20049;-73
2023/01/09 10:35:02;;;;;;;12.30;3.42;;;7.20;93.50;;;;;;4824834;29;20108;-74
2023/01/09 10:37:33;;;;;;;8.45;3.50;;;7.20;93.40;;;;;;4820557;29;20050;-73
2023/01/09 10:40:04;;;;;;;8.15;3.35;;;7.20;93.50;;;;;;4828599;29;20100;-74
2023/01/09 10:42:35;;;;;;;10.18;3.20;;;7.20;93.60;;;;;;4828691;29;20089;-74
2023/01/09 10:45:00;;;;;;;9.77;3.63;;;7.10;93.40;;;;;;4836908;29;20399;-73
2023/01/09 10:47:36;;;;;;;7.45;3.70;;;7.10;93.50;;;;;;4831554;29;20133;-74
2023/01/09 10:50:18;;;;;;;9.32;3.38;;;7.10;93.50;;;;;;4831405;29;20046;-74
2023/01/09 10:52:45;;;;;;;9.90;3.97;;;7.00;93.70;;;;;;4834306;29;20049;-73
2023/01/09 10:55:29;;;;;;;5.60;3.10;;;7.00;93.90;;;;;;4836005;29;20098;-74
2023/01/09 10:58:01;;;;;;;11.00;3.83;;;7.00;94.00;;;;;;4823300;29;20060;-73
2023/01/09 11:00:27;;;;;;;8.93;4.57;;;7.00;94.10;;;;;;4810842;29;20134;-73
2023/01/09 11:02:53;;;;;;;9.80;3.92;;;7.00;94.40;;;;;;4835910;29;20038;-73
2023/01/09 11:05:37;;;;;;;10.65;4.00;;;6.90;94.40;;;;;;4834429;29;20061;-75
2023/01/09 11:08:12;;;;;;;8.63;4.10;;;6.90;94.50;;;;;;4835230;29;20065;-73
2023/01/09 11:10:48;;;;;;;12.38;4.57;;;6.90;94.60;;;;;;4835921;29;20479;-73
2023/01/09 11:13:22;;;;;;;10.63;4.40;;;6.90;94.70;;;;;;4832886;29;20042;-73
2023/01/09 11:16:09;;;;;;;13.13;4.75;;;6.90;95.10;;;;;;4835264;29;20094;-73
2023/01/09 11:18:46;;;;;;;12.23;4.35;;;6.90;95.10;;;;;;4834798;29;20045;-73
2023/01/09 11:21:26;;;;;;;13.15;4.72;;;6.90;95.20;;;;;;4835370;29;20102;-73
2023/01/09 11:23:52;;;;;;;11.25;4.80;;;6.90;95.30;;;;;;4825967;29;20042;-73
2023/01/09 11:26:26;;;;;;;11.07;3.97;;;7.00;95.70;;;;;;4836144;29;20146;-73
2023/01/09 11:29:06;;;;;;;11.10;4.60;;;7.10;95.40;;;;;;4829563;29;20049;-73
2023/01/09 11:31:32;;;;;;;11.32;4.30;;;7.10;95.30;;;;;;4827353;29;20562;-74
2023/01/09 11:33:58;;;;;;;9.23;4.72;;;7.10;95.60;;;;;;4818562;29;20816;-73
2023/01/09 11:36:26;;;;;;;9.48;4.13;;;7.20;95.30;;;;;;4821359;29;20137;-74
2023/01/09 11:38:54;;;;;;;12.40;4.38;;;7.20;95.10;;;;;;4834609;29;20045;-74
2023/01/09 11:41:23;;;;;;;8.77;4.93;;;7.20;95.00;;;;;;4833667;29;20126;-73
2023/01/09 11:43:55;;;;;;;11.65;5.10;;;7.10;95.10;;;;;;4833624;29;20046;-73
2023/01/09 11:46:39;;;;;;;17.23;5.63;;;7.20;95.20;;;;;;4829594;29;20670;-73
2023/01/09 11:49:27;;;;;;;9.20;4.47;;;7.10;95.20;;;;;;4820079;29;20050;-74
2023/01/09 11:52:15;;;;;;;12.30;4.70;;;7.10;95.20;;;;;;4830767;29;20137;-73
2023/01/09 11:55:05;;;;;;;9.57;4.78;;;7.10;95.40;;;;;;4828702;29;20525;-73
2023/01/09 11:57:32;;;;;;;26.58;6.05;;;7.20;95.40;;;;;;4832592;29;20101;-76
2023/01/09 12:00:03;;;;;;;13.73;5.00;;;7.10;95.40;;;;;;4834626;29;20195;-75
2023/01/09 12:02:47;;;;;;;12.55;5.20;;;7.10;95.70;;;;;;4835841;29;20054;-73
2023/01/09 12:05:35;;;;;;;12.32;5.65;;;7.10;95.40;;;;;;4822280;29;20065;-73
2023/01/09 12:08:30;;;;;;;10.10;5.60;;;7.20;95.50;;;;;;4833862;29;20045;-73
2023/01/09 12:11:01;;;;;;;11.63;5.50;;;7.20;95.70;;;;;;4830035;29;20068;-73
2023/01/09 12:13:57;;;;;;;15.13;6.07;;;7.30;95.70;;;;;;4829908;29;20655;-73
2023/01/09 12:16:32;;;;;;;14.98;6.00;;;7.40;95.70;;;;;;4836504;29;20494;-75
2023/01/09 12:19:21;;;;;;;10.02;5.50;;;7.40;95.50;;;;;;4833619;29;20511;-73
2023/01/09 12:22:16;;;;;;;8.68;6.00;;;7.50;95.40;;;;;;4833129;29;20050;-73
2023/01/09 12:25:09;;;;;;;9.27;5.57;;;7.50;95.20;;;;;;4836476;29;20034;-72
2023/01/09 12:28:09;;;;;;;13.57;5.90;;;7.50;95.30;;;;;;4822978;29;20050;-74
2023/01/09 12:30:57;;;;;;;9.00;5.85;;;7.60;95.10;;;;;;4830111;29;20077;-73
2023/01/09 12:33:38;;;;;;;8.75;6.00;;;7.60;95.00;;;;;;4834793;29;20050;-74
2023/01/09 12:36:45;;;;;;;11.93;6.30;;;7.60;94.90;;;;;;4827224;29;20110;-73
2023/01/09 12:39:31;;;;;;;15.85;6.10;;;7.60;94.90;;;;;;4822833;29;20140;-73
2023/01/09 12:42:28;;;;;;;9.68;5.95;;;7.60;94.80;;;;;;4831538;29;20046;-73
2023/01/09 12:45:08;;;;;;;13.38;6.40;;;7.50;94.80;;;;;;4833729;29;20526;-73
2023/01/09 12:47:47;;;;;;;14.07;6.93;;;7.50;94.70;;;;;;4822749;29;20437;-73
2023/01/09 12:50:13;;;;;;;11.60;6.40;;;7.50;94.80;;;;;;4829724;29;20050;-73
2023/01/09 12:53:03;;;;;;;11.60;6.15;;;7.50;94.80;;;;;;4829003;29;20117;-74
2023/01/09 12:55:34;;;;;;;12.82;6.90;;;7.50;94.80;;;;;;4826572;29;20077;-74
2023/01/09 12:58:11;;;;;;;11.70;7.13;;;7.50;94.80;;;;;;4834185;29;20061;-73
2023/01/09 13:00:41;;;;;;;14.13;7.60;;;7.50;94.70;;;;;;4834527;29;20102;-73
2023/01/09 13:03:20;;;;;;;14.27;7.32;;;7.50;94.60;;;;;;4834447;29;20052;-74
2023/01/09 13:05:47;;;;;;;11.75;7.78;;;7.50;94.40;;;;;;4830594;29;20160;-74
2023/01/09 13:08:30;;;;;;;12.52;7.47;;;7.50;94.40;;;;;;4833755;29;20045;-74
2023/01/09 13:11:16;;;;;;;11.18;6.60;;;7.50;94.30;;;;;;4833885;29;20114;-73
2023/01/09 13:14:01;;;;;;;13.20;7.75;;;7.50;94.20;;;;;;4833607;29;20463;-73
2023/01/09 13:16:32;;;;;;;9.88;6.50;;;7.50;94.10;;;;;;4834820;29;20052;-73
2023/01/09 13:19:18;;;;;;;11.23;6.78;;;7.50;94.20;;;;;;4832996;29;20182;-74